Time;durP1;ratioP1;P1;durP2;ratioP2;P2;SDS_P1;SDS_P2;PMS_P1;PMS_P2;Temp;Humidity;BMP_temperature;BMP_pressure;BME280_temperature;BME280_humidity;BME280_pressure;Samples;Min_cycle;Max_cycle;Signal;HPM_P1;HPM_P2
2022/12/28 00:01:11;;;;;;;11.97;5.37;;;;;;;12.50;61.69;101502.94;5114242;27;20023;-67
2022/12/28 00:03:37;;;;;;;16.35;6.25;;;;;;;12.66;62.08;101498.44;5133112;27;20484;-67
2022/12/28 00:06:04;;;;;;;11.37;6.10;;;;;;;12.45;61.05;101496.00;5131882;27;20059;-67
2022/12/28 00:08:29;;;;;;;13.03;5.93;;;;;;;12.60;61.66;101482.75;5133019;27;20061;-67
2022/12/28 00:11:05;;;;;;;12.13;5.87;;;;;;;12.80;60.88;101468.59;5129161;27;20039;-67
2022/12/28 00:13:33;;;;;;;12.63;5.73;;;;;;;12.36;60.99;101474.22;5112708;27;20031;-67
2022/12/28 00:16:04;;;;;;;18.00;6.60;;;;;;;12.82;60.98;101461.59;5114309;27;20052;-67
2022/12/28 00:18:32;;;;;;;15.37;6.07;;;;;;;13.25;59.73;101440.16;5133662;27;20088;-67
2022/12/28 00:20:59;;;;;;;18.87;6.23;;;;;;;13.45;57.79;101441.69;5128601;27;20019;-67
2022/12/28 00:23:25;;;;;;;11.93;5.97;;;;;;;12.89;60.12;101437.91;5131519;27;20520;-67
2022/12/28 00:25:51;;;;;;;11.40;6.47;;;;;;;12.58;60.91;101437.31;5113629;27;20019;-67
2022/12/28 00:28:16;;;;;;;14.63;6.27;;;;;;;12.65;61.30;101418.03;5114091;27;20027;-67
2022/12/28 00:30:42;;;;;;;11.17;5.87;;;;;;;12.64;61.81;101411.03;5130523;27;20023;-67
2022/12/28 00:33:07;;;;;;;11.30;6.00;;;;;;;12.67;61.61;101411.00;5133540;27;20035;-67
2022/12/28 00:35:32;;;;;;;15.77;6.13;;;;;;;13.07;59.61;101405.34;5132292;27;20023;-66
2022/12/28 00:37:58;;;;;;;16.07;6.20;;;;;;;12.40;62.43;101409.50;5097107;27;20391;-67
2022/12/28 00:40:23;;;;;;;15.70;6.87;;;;;;;13.14;61.29;101400.03;5130490;27;20378;-67
2022/12/28 00:42:48;;;;;;;14.03;5.83;;;;;;;12.75;61.09;101410.06;5132096;27;20031;-67
2022/12/28 00:45:14;;;;;;;12.53;5.70;;;;;;;12.80;59.23;101400.41;5131115;27;20019;-67
2022/12/28 00:47:39;;;;;;;13.33;6.10;;;;;;;13.21;59.66;101401.69;5132753;27;20031;-66
2022/12/28 00:50:05;;;;;;;10.83;6.30;;;;;;;13.60;57.03;101396.88;5130879;27;20466;-66
2022/12/28 00:52:30;;;;;;;13.07;6.77;;;;;;;13.77;57.46;101380.00;5130852;27;20542;-66
2022/12/28 00:54:56;;;;;;;17.50;6.60;;;;;;;13.03;60.64;101372.16;5129955;27;20076;-67
2022/12/28 00:57:21;;;;;;;11.70;6.43;;;;;;;12.34;61.47;101373.72;5131784;27;20027;-66
2022/12/28 00:59:47;;;;;;;12.87;6.50;;;;;;;12.60;63.89;101380.50;5131207;27;20035;-66
2022/12/28 01:02:12;;;;;;;13.10;6.93;;;;;;;13.05;60.75;101370.38;5132341;27;20101;-67
2022/12/28 01:04:37;;;;;;;11.23;6.57;;;;;;;13.06;61.45;101360.75;5108906;28;20042;-67
2022/12/28 01:07:03;;;;;;;13.47;6.37;;;;;;;12.85;61.32;101367.13;5109927;28;20148;-67
2022/12/28 01:09:28;;;;;;;12.37;8.00;;;;;;;12.59;62.14;101355.13;5111763;28;20019;-67
2022/12/28 01:11:53;;;;;;;10.17;6.43;;;;;;;13.32;59.27;101342.03;5109796;28;20031;-67
2022/12/28 01:14:19;;;;;;;16.17;6.90;;;;;;;13.65;58.42;101347.75;5112087;28;20019;-67
2022/12/28 01:16:44;;;;;;;17.63;7.47;;;;;;;13.24;59.75;101339.53;5109529;28;20055;-67
2022/12/28 01:19:15;;;;;;;10.37;6.33;;;;;;;13.55;58.89;101344.38;5111447;28;20027;-67
2022/12/28 01:21:40;;;;;;;14.10;6.43;;;;;;;13.05;59.76;101336.28;5092452;28;20076;-67
2022/12/28 01:24:09;;;;;;;14.67;6.87;;;;;;;13.57;60.06;101325.97;5110793;28;20035;-68
2022/12/28 01:26:34;;;;;;;11.90;7.07;;;;;;;12.94;61.18;101327.66;5109025;28;20027;-67
2022/12/28 01:29:00;;;;;;;13.30;7.43;;;;;;;13.54;57.62;101337.38;5108925;28;20371;-67
2022/12/28 01:31:26;;;;;;;14.60;8.03;;;;;;;13.52;56.83;101322.56;5110533;28;20047;-67
2022/12/28 01:33:52;;;;;;;11.57;6.83;;;;;;;13.47;57.02;101327.00;5111044;28;20600;-67
2022/12/28 01:36:30;;;;;;;9.70;5.73;;;;;;;13.12;59.15;101330.94;5107854;28;20036;-68
2022/12/28 01:39:02;;;;;;;13.03;6.63;;;;;;;13.64;59.58;101332.00;5110235;28;20027;-67
2022/12/28 01:41:29;;;;;;;9.93;6.38;;;;;;;13.13;57.85;101332.66;5109968;28;20106;-67
2022/12/28 01:43:54;;;;;;;12.73;6.60;;;;;;;13.10;60.24;101311.72;5111551;28;20120;-68
2022/12/28 01:46:23;;;;;;;9.90;6.80;;;;;;;13.09;59.88;101302.97;5108261;28;20059;-68
2022/12/28 01:48:55;;;;;;;11.67;6.97;;;;;;;12.93;60.51;101314.53;5110678;28;20433;-67
2022/12/28 01:51:22;;;;;;;13.20;7.27;;;;;;;13.93;57.92;101302.66;5123973;28;20028;-67
2022/12/28 01:53:50;;;;;;;15.90;6.53;;;;;;;12.79;60.23;101304.22;5111049;28;20027;-67
2022/12/28 01:56:16;;;;;;;15.23;7.30;;;;;;;13.72;57.31;101298.59;5107959;28;20032;-67
2022/12/28 01:58:42;;;;;;;12.17;7.13;;;;;;;12.87;60.01;101294.50;5092674;28;20129;-68
2022/12/28 02:01:08;;;;;;;15.30;7.00;;;;;;;13.36;60.14;101280.75;5110932;28;20015;-67
2022/12/28 02:03:35;;;;;;;12.63;6.77;;;;;;;13.31;60.00;101282.56;5113074;28;20095;-67
2022/12/28 02:06:04;;;;;;;12.93;6.73;;;;;;;13.73;57.03;101280.19;5110172;28;20027;-67
2022/12/28 02:08:42;;;;;;;9.70;6.30;;;;;;;13.94;56.54;101278.09;5104648;28;20042;-67
2022/12/28 02:11:12;;;;;;;13.43;7.27;;;;;;;13.32;58.23;101267.66;5130467;28;20034;-68
2022/12/28 02:13:39;;;;;;;11.13;6.57;;;;;;;14.58;55.02;101272.56;5130897;28;20028;-68
2022/12/28 02:16:05;;;;;;;14.80;7.20;;;;;;;13.71;57.70;101260.97;5128844;28;20490;-67
2022/12/28 02:18:31;;;;;;;11.07;6.30;;;;;;;13.29;58.10;101252.81;5130688;28;20029;-68
2022/12/28 02:21:17;;;;;;;9.43;6.20;;;;;;;13.03;60.24;101246.19;5130117;28;20546;-68
2022/12/28 02:24:10;;;;;;;13.03;5.90;;;;;;;13.59;59.36;101266.44;5129976;28;20038;-67
2022/12/28 02:26:54;;;;;;;12.82;6.20;;;;;;;14.23;56.86;101255.69;5092845;28;20506;-68
2022/12/28 02:29:35;;;;;;;10.13;6.23;;;;;;;13.94;57.22;101256.22;5101481;28;20117;-68
2022/12/28 02:32:03;;;;;;;11.47;6.03;;;;;;;14.38;57.05;101242.28;5131684;28;20027;-67
2022/12/28 02:34:47;;;;;;;8.43;6.13;;;;;;;14.30;55.26;101223.16;5111330;28;20418;-67
2022/12/28 02:37:20;;;;;;;10.43;5.70;;;;;;;13.00;59.87;101230.47;5129529;28;20035;-67
2022/12/28 02:39:47;;;;;;;;;;;;;;;13.63;59.31;101239.22;5112794;28;20070;-68
2022/12/28 02:42:15;;;;;;;10.57;6.10;;;;;;;13.47;59.50;101225.44;5130738;28;20002;-67
2022/12/28 02:50:14;;;;;;;9.30;5.63;;;;;;;13.46;60.70;101218.47;5128670;27;20123;-67
2022/12/28 02:52:54;;;;;;;10.03;6.57;;;;;;;13.85;59.94;101209.97;5112245;27;20083;-67
2022/12/28 02:58:43;;;;;;;7.73;5.63;;;;;;;13.50;61.35;101203.53;5134558;27;20126;-67
2022/12/28 03:01:27;;;;;;;9.03;5.53;;;;;;;13.30;62.65;101193.31;5132174;27;20065;-67
2022/12/28 03:04:05;;;;;;;12.17;5.57;;;;;;;13.64;61.55;101203.31;5115521;27;20066;-67
2022/12/28 03:09:57;;;;;;;10.73;5.67;;;;;;;13.76;58.97;101183.84;5133296;27;20467;-67
2022/12/28 03:12:26;;;;;;;7.70;5.60;;;;;;;13.95;60.33;101179.13;5095334;27;20046;-67
2022/12/28 03:14:58;;;;;;;10.43;6.00;;;;;;;13.76;60.81;101215.38;5132212;27;20026;-67
2022/12/28 03:31:26;;;;;;;9.43;5.30;;;;;;;14.35;57.95;101200.25;5133835;27;20119;-67
2022/12/28 03:34:05;;;;;;;9.03;5.03;;;;;;;13.86;61.79;101188.03;5131336;27;20467;-67
2022/12/28 03:36:49;;;;;;;9.37;5.77;;;;;;;13.73;62.09;101190.00;5108760;27;20035;-67
2022/12/28 03:39:18;;;;;;;8.47;5.47;;;;;;;14.80;59.29;101186.19;5110722;27;20531;-67
2022/12/28 03:41:48;;;;;;;14.23;5.63;;;;;;;14.71;58.66;101184.66;5132585;27;20393;-67
2022/12/28 03:44:25;;;;;;;11.00;5.80;;;;;;;13.81;60.84;101195.16;5095801;27;20087;-67
2022/12/28 03:46:56;;;;;;;11.50;5.50;;;;;;;13.67;60.80;101191.00;5131314;27;20035;-67
2022/12/28 03:49:26;;;;;;;8.30;5.20;;;;;;;13.79;62.48;101173.28;5115609;27;20377;-67
2022/12/28 03:51:53;;;;;;;11.97;5.53;;;;;;;13.65;63.12;101187.50;5132865;27;20042;-67
2022/12/28 03:54:19;;;;;;;9.57;5.63;;;;;;;14.21;61.30;101191.78;5095156;27;20454;-67
2022/12/28 03:56:50;;;;;;;10.20;5.50;;;;;;;14.46;61.90;101180.75;5132325;27;20184;-67
2022/12/28 03:59:16;;;;;;;7.83;4.70;;;;;;;13.86;61.25;101177.50;5115407;27;20037;-67
2022/12/28 04:01:42;;;;;;;8.77;5.30;;;;;;;14.08;62.32;101191.13;5114722;27;20034;-67
2022/12/28 04:04:07;;;;;;;10.23;5.33;;;;;;;13.81;61.97;101166.25;5113721;27;20047;-67
2022/12/28 04:06:33;;;;;;;6.90;4.10;;;;;;;14.11;61.66;101166.53;5113756;27;20019;-67
2022/12/28 04:08:58;;;;;;;6.97;4.50;;;;;;;13.16;65.27;101159.41;5130372;27;20042;-67
2022/12/28 04:11:24;;;;;;;9.50;4.90;;;;;;;14.28;62.84;101140.78;5132021;27;20113;-67
2022/12/28 04:13:49;;;;;;;11.77;4.60;;;;;;;14.78;61.37;101150.28;5132674;27;20057;-67
2022/12/28 04:16:15;;;;;;;5.67;4.00;;;;;;;14.56;59.09;101141.09;5111692;27;20103;-67
2022/12/28 04:18:41;;;;;;;8.47;5.17;;;;;;;14.02;63.23;101139.53;5095457;27;20504;-67
2022/12/28 04:21:07;;;;;;;8.57;3.73;;;;;;;14.60;61.84;101155.03;5109766;27;20027;-67
2022/12/28 04:23:33;;;;;;;8.70;4.33;;;;;;;14.52;60.87;101149.94;5133093;27;20550;-67
2022/12/28 04:26:03;;;;;;;9.23;3.87;;;;;;;14.26;63.75;101163.63;5130733;27;20188;-67
2022/12/28 04:28:30;;;;;;;9.40;3.57;;;;;;;14.28;63.43;101156.56;5132262;27;20563;-67
2022/12/28 04:30:56;;;;;;;11.03;4.23;;;;;;;14.73;61.21;101138.09;5113276;27;20038;-67
2022/12/28 04:33:22;;;;;;;6.97;3.80;;;;;;;14.39;62.28;101144.06;5132934;27;20031;-67
2022/12/28 04:35:48;;;;;;;7.03;3.70;;;;;;;13.92;66.04;101148.50;5131639;27;20428;-67
2022/12/28 04:38:13;;;;;;;5.97;3.60;;;;;;;14.49;63.31;101133.34;5132620;27;20031;-67
2022/12/28 04:40:38;;;;;;;8.63;4.27;;;;;;;14.73;61.64;101132.84;5113112;27;20488;-67
2022/12/28 04:43:04;;;;;;;8.47;3.77;;;;;;;14.52;62.08;101122.75;5132589;27;20031;-66
2022/12/28 04:45:29;;;;;;;8.60;3.77;;;;;;;14.73;62.22;101122.31;5132642;27;20031;-67
2022/12/28 04:47:58;;;;;;;6.07;4.07;;;;;;;14.78;61.01;101111.69;5113351;27;20062;-67
2022/12/28 04:50:24;;;;;;;10.17;3.50;;;;;;;14.30;63.24;101128.50;5127816;27;20443;-67
2022/12/28 04:52:49;;;;;;;9.90;4.07;;;;;;;14.85;60.53;101126.44;5113000;27;20081;-67
2022/12/28 04:55:15;;;;;;;6.73;3.73;;;;;;;14.57;63.44;101127.00;5131880;27;20128;-67
2022/12/28 04:57:44;;;;;;;8.03;3.70;;;;;;;13.37;69.28;101124.97;5132140;27;20041;-67
2022/12/28 05:00:11;;;;;;;7.33;3.10;;;;;;;14.14;63.45;101121.81;5113318;27;20491;-67
2022/12/28 05:02:36;;;;;;;5.77;3.80;;;;;;;14.33;64.53;101133.69;5131999;27;20027;-67
2022/12/28 05:05:02;;;;;;;10.20;4.10;;;;;;;14.29;66.35;101126.75;5130068;27;20049;-67
2022/12/28 05:07:28;;;;;;;6.63;3.33;;;;;;;14.89;62.44;101116.69;5132588;27;20049;-67
2022/12/28 05:09:53;;;;;;;6.97;3.40;;;;;;;14.51;66.14;101121.03;5111458;27;20076;-67
2022/12/28 05:12:20;;;;;;;5.47;3.47;;;;;;;14.55;63.84;101122.72;5131045;27;20027;-67
2022/12/28 05:14:45;;;;;;;8.73;4.17;;;;;;;14.45;67.08;101121.16;5132419;27;20069;-67
2022/12/28 05:17:10;;;;;;;8.73;3.33;;;;;;;14.62;63.85;101108.50;5131176;27;20063;-67
2022/12/28 05:19:36;;;;;;;7.10;3.90;;;;;;;14.83;64.80;101116.84;5112177;27;20039;-67
2022/12/28 05:22:01;;;;;;;7.83;4.00;;;;;;;14.63;65.94;101115.56;5112966;27;20103;-67
2022/12/28 05:24:27;;;;;;;7.43;4.17;;;;;;;14.87;62.99;101113.25;5131386;27;20019;-67
2022/12/28 05:26:53;;;;;;;6.30;3.83;;;;;;;14.35;64.78;101115.25;5113260;27;20446;-67
2022/12/28 05:29:18;;;;;;;10.00;3.90;;;;;;;14.95;64.01;101106.03;5109886;27;20027;-67
2022/12/28 05:31:43;;;;;;;7.83;4.20;;;;;;;15.21;61.43;101113.28;5130967;27;20027;-66
2022/12/28 05:34:08;;;;;;;7.67;3.57;;;;;;;15.10;63.90;101105.66;5110817;27;20113;-67
2022/12/28 05:36:36;;;;;;;4.97;3.60;;;;;;;14.87;62.60;101107.97;5132171;27;20494;-67
2022/12/28 05:39:03;;;;;;;5.77;3.23;;;;;;;15.08;60.41;101091.69;5111392;28;20496;-67
2022/12/28 05:41:28;;;;;;;4.07;3.60;;;;;;;14.92;61.75;101085.06;5112571;27;20483;-67
2022/12/28 05:43:55;;;;;;;10.47;4.40;;;;;;;15.19;60.56;101085.28;5132242;27;20064;-67
2022/12/28 05:46:31;;;;;;;9.30;5.13;;;;;;;14.98;61.83;101100.69;5131582;27;20089;-67
2022/12/28 05:48:57;;;;;;;7.57;3.47;;;;;;;14.83;62.93;101094.03;5092493;28;20027;-67
2022/12/28 05:51:27;;;;;;;6.30;3.57;;;;;;;15.01;62.84;101084.81;5130317;28;20041;-67
2022/12/28 05:53:53;;;;;;;4.83;3.83;;;;;;;14.86;62.34;101077.28;5112113;28;20031;-67
2022/12/28 05:56:22;;;;;;;6.33;3.23;;;;;;;14.74;62.81;101089.84;5131787;28;20516;-67
2022/12/28 05:58:53;;;;;;;6.47;3.30;;;;;;;14.68;61.26;101097.88;5128630;28;20053;-67
2022/12/28 06:01:20;;;;;;;6.07;3.87;;;;;;;15.13;62.57;101098.59;5093138;28;20387;-67
2022/12/28 06:03:50;;;;;;;5.40;3.60;;;;;;;15.18;61.69;101080.91;5131796;28;20176;-67
2022/12/28 06:06:18;;;;;;;7.80;3.80;;;;;;;15.77;58.53;101081.09;5129629;28;20063;-67
2022/12/28 06:08:45;;;;;;;3.80;3.17;;;;;;;15.51;59.87;101105.53;5130107;28;20031;-67
2022/12/28 06:11:13;;;;;;;5.63;3.13;;;;;;;15.33;60.48;101085.78;5112080;28;20033;-67
2022/12/28 06:13:39;;;;;;;12.83;3.90;;;;;;;14.71;64.37;101076.78;5131770;28;20063;-67
2022/12/28 06:16:09;;;;;;;6.53;3.37;;;;;;;14.98;61.66;101058.56;5094682;28;20122;-67
2022/12/28 06:18:35;;;;;;;7.07;3.27;;;;;;;15.05;63.31;101065.41;5128775;28;20502;-67
2022/12/28 06:21:03;;;;;;;7.77;3.00;;;;;;;15.37;63.30;101076.91;5128804;28;20051;-67
2022/12/28 06:23:28;;;;;;;5.30;3.63;;;;;;;14.64;65.89;101075.16;5127642;28;20039;-67
2022/12/28 06:25:57;;;;;;;13.30;3.50;;;;;;;15.29;62.21;101070.97;5114043;27;20081;-67
2022/12/28 06:28:22;;;;;;;5.80;3.00;;;;;;;14.57;67.05;101063.03;5115029;27;20031;-67
2022/12/28 06:30:47;;;;;;;5.00;2.70;;;;;;;14.95;63.80;101058.66;5116330;27;20092;-67
2022/12/28 06:33:13;;;;;;;5.60;3.20;;;;;;;15.17;62.61;101058.13;5134828;27;20132;-67
2022/12/28 06:35:41;;;;;;;8.80;3.40;;;;;;;15.47;60.89;101050.31;5131030;27;20403;-67
2022/12/28 06:38:07;;;;;;;8.00;3.10;;;;;;;15.53;62.74;101060.69;5133255;27;20034;-67
2022/12/28 06:40:32;;;;;;;7.10;3.30;;;;;;;15.63;61.47;101051.63;5135446;27;20019;-67
2022/12/28 06:42:57;;;;;;;4.67;3.63;;;;;;;14.96;63.88;101060.41;5134045;27;20082;-67
2022/12/28 06:45:23;;;;;;;3.00;2.60;;;;;;;15.21;62.27;101057.16;5116786;27;20443;-67
2022/12/28 06:47:48;;;;;;;8.17;3.20;;;;;;;15.01;63.42;101066.38;5114608;27;20104;-67
2022/12/28 06:50:14;;;;;;;10.67;3.50;;;;;;;15.14;64.27;101058.19;5112220;27;20693;-66
2022/12/28 06:52:39;;;;;;;5.63;3.80;;;;;;;13.85;66.65;101060.19;5132967;27;20050;-66
2022/12/28 06:55:05;;;;;;;5.47;3.27;;;;;;;15.04;63.62;101047.91;5135051;27;20027;-67
2022/12/28 06:57:30;;;;;;;4.73;2.93;;;;;;;14.68;64.40;101060.19;5116051;27;20027;-66
2022/12/28 06:59:56;;;;;;;4.23;2.90;;;;;;;14.74;65.83;101046.88;5135218;27;20023;-67
2022/12/28 07:02:21;;;;;;;5.70;3.10;;;;;;;15.61;61.39;101051.66;5132796;27;20057;-67
2022/12/28 07:04:46;;;;;;;5.27;2.93;;;;;;;15.21;63.38;101043.97;5112778;27;20047;-67
2022/12/28 07:07:12;;;;;;;3.17;2.47;;;;;;;14.96;64.87;101052.50;5135064;27;20027;-66
2022/12/28 07:09:37;;;;;;;3.50;2.67;;;;;;;15.66;61.56;101063.84;5134715;27;20031;-67
2022/12/28 07:12:03;;;;;;;6.43;3.13;;;;;;;16.50;57.50;101054.41;5131899;27;20034;-67
2022/12/28 07:14:28;;;;;;;3.70;2.77;;;;;;;16.34;57.52;101049.59;5116505;27;20023;-67
2022/12/28 07:16:54;;;;;;;5.47;2.63;;;;;;;15.36;60.24;101045.31;5134728;27;20510;-67
2022/12/28 07:19:19;;;;;;;7.97;2.80;;;;;;;15.63;61.34;101046.34;5112489;27;20031;-66
2022/12/28 07:21:44;;;;;;;5.07;2.70;;;;;;;15.69;60.01;101046.19;5130604;27;20027;-67
2022/12/28 07:24:10;;;;;;;6.40;2.80;;;;;;;15.94;59.69;101035.84;5114159;27;20059;-67
2022/12/28 07:26:36;;;;;;;7.33;3.03;;;;;;;15.65;61.40;101047.19;5115339;27;20509;-67
2022/12/28 07:29:04;;;;;;;5.37;3.17;;;;;;;15.91;60.37;101040.34;5114553;27;20038;-66
2022/12/28 07:31:32;;;;;;;6.17;3.00;;;;;;;15.34;61.94;101060.31;5133649;27;20084;-67
2022/12/28 07:33:59;;;;;;;5.73;3.10;;;;;;;15.28;61.18;101061.34;5107889;28;20435;-67
2022/12/28 07:36:27;;;;;;;6.40;2.90;;;;;;;15.67;60.50;101049.78;5096059;27;20513;-67
2022/12/28 07:38:53;;;;;;;3.10;2.73;;;;;;;15.84;58.19;101057.22;5113854;27;20919;-67
2022/12/28 07:41:27;;;;;;;6.03;3.17;;;;;;;15.55;61.84;101053.59;5130040;27;20115;-67
2022/12/28 07:43:53;;;;;;;4.57;2.83;;;;;;;15.71;60.36;101054.03;5130100;27;20440;-67
2022/12/28 07:46:30;;;;;;;4.20;2.90;;;;;;;15.44;60.50;101070.56;5111809;27;20031;-67
2022/12/28 07:48:59;;;;;;;5.50;2.63;;;;;;;14.95;64.02;101070.94;5131965;27;20398;-67
2022/12/28 07:51:30;;;;;;;5.07;2.53;;;;;;;16.31;57.29;101057.63;5114610;27;20482;-68
2022/12/28 07:53:57;;;;;;;5.93;2.63;;;;;;;15.66;61.12;101059.47;5090630;27;20041;-68
2022/12/28 07:56:24;;;;;;;4.93;3.47;;;;;;;15.37;61.81;101054.97;5111066;27;20044;-68
2022/12/28 07:58:55;;;;;;;5.17;2.73;;;;;;;15.89;60.26;101063.25;5130579;27;20371;-68
2022/12/28 08:01:22;;;;;;;5.37;2.40;;;;;;;15.41;59.81;101062.75;5132588;27;20034;-68
2022/12/28 08:03:52;;;;;;;3.90;2.50;;;;;;;15.86;59.91;101052.78;5095601;27;20051;-68
2022/12/28 08:06:19;;;;;;;3.80;2.57;;;;;;;16.42;56.97;101047.59;5113352;27;20022;-68
2022/12/28 08:08:46;;;;;;;6.03;3.10;;;;;;;16.02;57.29;101054.06;5125995;27;20036;-68
2022/12/28 08:11:14;;;;;;;2.90;2.00;;;;;;;15.92;58.66;101061.38;5127145;27;20031;-68
2022/12/28 08:13:42;;;;;;;4.40;2.47;;;;;;;16.16;57.49;101040.47;5129838;27;20576;-68
2022/12/28 08:16:10;;;;;;;5.53;2.50;;;;;;;15.50;59.97;101044.97;5124527;27;20486;-68
2022/12/28 08:18:35;;;;;;;4.80;2.50;;;;;;;15.86;60.19;101052.78;5130147;27;20035;-68
2022/12/28 08:21:03;;;;;;;2.43;2.23;;;;;;;15.78;58.55;101051.22;5112759;27;20019;-68
2022/12/28 08:23:30;;;;;;;3.20;2.30;;;;;;;15.30;61.65;101053.41;5123920;27;20030;-68
2022/12/28 08:26:03;;;;;;;6.17;2.63;;;;;;;15.64;61.34;101045.44;5131150;27;20130;-68
2022/12/28 08:28:28;;;;;;;3.20;2.92;;;;;;;15.56;60.55;101045.66;5130755;27;20045;-68
2022/12/28 08:30:54;;;;;;;5.50;2.97;;;;;;;15.50;61.86;101051.09;5114305;27;20027;-68
2022/12/28 08:33:19;;;;;;;5.30;3.30;;;;;;;15.57;60.49;101041.25;5130773;27;20433;-69
2022/12/28 08:35:44;;;;;;;6.17;2.73;;;;;;;15.10;61.97;101045.09;5101418;27;20039;-68
2022/12/28 08:38:10;;;;;;;5.07;3.27;;;;;;;14.83;65.17;101045.81;5101974;27;20080;-68
2022/12/28 08:40:35;;;;;;;3.80;2.87;;;;;;;15.42;62.45;101048.66;5114550;27;20450;-68
2022/12/28 08:43:01;;;;;;;6.73;3.30;;;;;;;15.66;59.88;101045.41;5130280;27;20027;-68
2022/12/28 08:45:26;;;;;;;6.87;3.03;;;;;;;15.59;58.97;101034.16;5128124;27;20027;-68
2022/12/28 08:47:52;;;;;;;6.83;3.40;;;;;;;15.35;61.96;101036.56;5127805;27;20514;-68
2022/12/28 08:50:17;;;;;;;5.53;3.30;;;;;;;16.21;58.10;101037.69;5124585;27;20049;-69
2022/12/28 08:52:43;;;;;;;7.17;3.33;;;;;;;15.17;61.36;101037.06;5124635;27;20019;-68
2022/12/28 08:55:08;;;;;;;7.20;3.53;;;;;;;15.52;61.30;101033.47;5091639;27;20028;-68
2022/12/28 08:57:34;;;;;;;8.43;3.27;;;;;;;15.04;62.46;101032.13;5109406;27;20284;-67
2022/12/28 08:59:59;;;;;;;9.83;3.47;;;;;;;15.57;62.28;101020.19;5125798;27;20080;-68
2022/12/28 09:02:25;;;;;;;6.50;3.70;;;;;;;15.23;61.91;101026.34;5127083;27;20035;-68
2022/12/28 09:04:50;;;;;;;6.73;3.30;;;;;;;15.55;62.15;101020.22;5128767;27;20197;-68
2022/12/28 09:07:15;;;;;;;3.93;2.67;;;;;;;15.33;60.31;101019.06;5132831;27;20023;-68
2022/12/28 09:09:41;;;;;;;14.70;4.70;;;;;;;15.76;61.16;101031.94;5114175;27;20068;-68
2022/12/28 09:12:06;;;;;;;6.20;3.20;;;;;;;15.41;62.20;101027.63;5113114;27;20482;-68
2022/12/28 09:14:32;;;;;;;9.10;3.07;;;;;;;15.26;62.98;101036.81;5111353;27;20025;-68
2022/12/28 09:16:57;;;;;;;8.23;3.73;;;;;;;15.22;63.74;101024.63;5132185;27;20046;-68
2022/12/28 09:19:22;;;;;;;8.30;2.70;;;;;;;15.47;62.96;101023.97;5113367;27;20351;-68
2022/12/28 09:21:51;;;;;;;8.27;3.33;;;;;;;16.33;58.96;101021.50;5132514;27;20059;-68
2022/12/28 09:24:16;;;;;;;10.30;3.00;;;;;;;14.91;62.82;101025.44;5130551;27;20378;-68
2022/12/28 09:26:42;;;;;;;6.80;3.43;;;;;;;14.93;65.81;101023.59;5131079;27;20023;-68
2022/12/28 09:29:11;;;;;;;5.97;3.23;;;;;;;15.59;63.76;101028.88;5113626;27;20538;-68
2022/12/28 09:31:38;;;;;;;7.57;3.30;;;;;;;15.84;62.18;101033.50;5113049;27;20030;-68
2022/12/28 09:34:06;;;;;;;5.93;3.43;;;;;;;15.68;60.12;101023.38;5130801;27;20050;-68
2022/12/28 09:36:42;;;;;;;8.53;3.50;;;;;;;15.73;61.46;101037.28;5129969;27;20122;-69
2022/12/28 09:39:15;;;;;;;7.97;2.97;;;;;;;14.63;64.73;101030.47;5131546;27;20098;-68
2022/12/28 09:42:24;;;;;;;8.90;3.20;;;;;;;14.81;66.08;101023.91;5131796;27;20019;-68
2022/12/28 09:44:58;;;;;;;10.17;3.27;;;;;;;15.96;59.27;101022.59;5112312;27;20038;-68
2022/12/28 09:47:37;;;;;;;8.60;3.10;;;;;;;14.83;64.36;101032.66;5112168;27;20126;-68
2022/12/28 09:50:15;;;;;;;14.23;3.30;;;;;;;15.44;62.57;101024.91;5113219;28;20273;-68
2022/12/28 09:53:05;;;;;;;8.27;3.60;;;;;;;15.86;59.98;101027.28;5112939;28;20117;-68
2022/12/28 09:55:33;;;;;;;11.77;3.97;;;;;;;15.81;60.26;101028.31;5093084;28;20037;-68
2022/12/28 09:57:59;;;;;;;8.13;4.27;;;;;;;15.84;59.25;101022.97;5111406;28;20023;-68
2022/12/28 10:00:40;;;;;;;10.93;3.30;;;;;;;14.78;63.54;101016.94;5108624;28;20057;-68
2022/12/28 10:03:17;;;;;;;7.37;3.17;;;;;;;15.14;61.21;101018.69;5116576;27;20038;-68
2022/12/28 10:05:42;;;;;;;7.23;3.43;;;;;;;15.91;59.01;101017.47;5116064;27;20367;-68
2022/12/28 10:08:12;;;;;;;7.93;2.73;;;;;;;15.63;58.73;101012.09;5117016;27;20030;-68
2022/12/28 10:10:40;;;;;;;12.67;3.07;;;;;;;15.95;58.92;101015.63;5115387;27;20098;-68
2022/12/28 10:13:19;;;;;;;10.00;3.27;;;;;;;15.81;59.08;101012.50;5136120;27;20022;-68
2022/12/28 10:15:46;;;;;;;6.50;2.87;;;;;;;15.86;59.67;101021.16;5136217;27;20058;-68
2022/12/28 10:18:20;;;;;;;8.40;2.30;;;;;;;15.94;59.15;101013.88;5134272;27;20439;-68
2022/12/28 10:20:46;;;;;;;8.27;2.57;;;;;;;15.48;60.82;101009.91;5134436;27;20031;-68
2022/12/28 10:23:16;;;;;;;5.60;2.60;;;;;;;15.41;62.82;101010.09;5135905;27;20023;-68
2022/12/28 10:25:41;;;;;;;7.17;2.27;;;;;;;15.63;61.85;101016.50;5134093;27;20022;-69
2022/12/28 10:28:09;;;;;;;5.43;3.07;;;;;;;14.99;63.86;101018.19;5134588;27;20026;-68
2022/12/28 10:30:45;;;;;;;8.20;2.90;;;;;;;15.85;63.29;101016.78;5134585;27;20019;-69
2022/12/28 10:33:17;;;;;;;6.63;3.03;;;;;;;14.93;67.83;101013.06;5115449;27;20112;-68
2022/12/28 10:35:51;;;;;;;6.38;3.75;;;;;;;15.36;65.99;101011.97;5115227;27;20049;-68
2022/12/28 10:38:21;;;;;;;8.57;4.07;;;;;;;15.30;67.45;101013.91;5135003;27;20107;-69
2022/12/28 10:40:59;;;;;;;5.97;4.20;;;;;;;15.26;66.70;101006.09;5133891;27;20478;-68
2022/12/28 10:43:28;;;;;;;7.50;4.50;;;;;;;15.28;64.17;100995.50;5114001;27;20043;-68
2022/12/28 10:45:56;;;;;;;9.53;4.37;;;;;;;15.55;66.03;101006.19;5116571;27;20034;-68
2022/12/28 10:48:26;;;;;;;5.93;4.10;;;;;;;16.02;63.72;101003.97;5116397;27;20034;-67
2022/12/28 10:51:10;;;;;;;12.17;5.00;;;;;;;15.63;64.25;100998.91;5114300;27;20039;-68
2022/12/28 10:53:39;;;;;;;8.33;4.03;;;;;;;15.61;64.15;101004.22;5095781;27;20030;-68
2022/12/28 10:56:13;;;;;;;8.60;3.73;;;;;;;14.93;68.00;100998.16;5115768;27;20045;-68
2022/12/28 10:58:40;;;;;;;8.50;4.03;;;;;;;15.58;64.11;101000.84;5134819;27;20035;-68
2022/12/28 11:01:17;;;;;;;6.10;3.57;;;;;;;14.94;67.65;100993.75;5114881;27;20050;-68
2022/12/28 11:03:56;;;;;;;6.37;3.07;;;;;;;14.35;69.44;100995.13;5134094;27;20161;-67
2022/12/28 11:06:26;;;;;;;10.57;3.37;;;;;;;15.91;65.50;100983.22;5114076;28;20035;-68
2022/12/28 11:09:05;;;;;;;11.37;3.80;;;;;;;15.01;68.96;100984.78;5095792;28;20542;-68
2022/12/28 11:11:32;;;;;;;10.10;3.93;;;;;;;15.06;70.25;100967.13;5100467;27;20050;-68
2022/12/28 11:14:32;;;;;;;8.90;4.03;;;;;;;15.74;66.00;100969.63;5133812;27;20080;-68
2022/12/28 11:17:28;;;;;;;8.93;5.03;;;;;;;14.61;68.60;100972.63;5126836;27;20499;-67
2022/12/28 11:20:12;;;;;;;10.53;3.80;;;;;;;14.97;69.05;100956.81;5115366;27;20125;-68
2022/12/28 11:22:38;;;;;;;8.87;3.63;;;;;;;15.39;68.29;100956.56;5134785;27;20023;-67
2022/12/28 11:25:05;;;;;;;9.03;3.73;;;;;;;14.06;74.79;100962.50;5132222;27;20053;-67
2022/12/28 11:27:30;;;;;;;6.97;4.70;;;;;;;15.28;68.14;100956.00;5133062;27;20031;-68
2022/12/28 11:29:56;;;;;;;9.80;4.30;;;;;;;15.18;68.84;100960.66;5134415;27;20394;-67
2022/12/28 11:32:36;;;;;;;12.10;3.90;;;;;;;14.45;69.89;100955.47;5133614;27;20087;-67
2022/12/28 11:35:02;;;;;;;9.07;3.37;;;;;;;14.87;68.32;100952.72;5132455;27;20550;-66
2022/12/28 11:37:28;;;;;;;6.70;3.33;;;;;;;15.65;66.01;100957.59;5115792;27;20110;-67
2022/12/28 11:39:53;;;;;;;7.70;2.63;;;;;;;15.14;67.84;100955.50;5115066;27;20035;-66
2022/12/28 11:42:30;;;;;;;5.50;2.83;;;;;;;15.05;70.24;100948.72;5131930;27;20079;-67
2022/12/28 11:44:57;;;;;;;8.67;3.40;;;;;;;14.92;67.37;100954.31;5114294;27;20118;-67
2022/12/28 11:47:32;;;;;;;9.80;2.67;;;;;;;15.25;67.24;100953.47;5134234;27;20019;-66
2022/12/28 11:50:37;;;;;;;10.77;3.23;;;;;;;14.74;70.89;100953.03;5115511;27;20026;-67
2022/12/28 11:53:19;;;;;;;11.53;3.50;;;;;;;15.33;69.18;100940.06;5113612;27;20041;-66
2022/12/28 11:56:08;;;;;;;6.87;3.23;;;;;;;14.99;68.68;100922.56;5131735;27;20031;-67